Airfield :
LOGIN :

Register | Disclaimer

   EN    FR    IT 

 










Legend :    VFR   Marginal VFR   IFR   Intensive IFR   Very Intensive IFR
Visi :
Ceiling :
>= 8 km
>= 3000ft
5 to 8 km
1000 to 3000 ft
1500m to 5 km
500 to 1000 ft
800 to 1500m
200 to 500 ft
< 800m
< 200 ft
Symbols :   Thunderstorms  Fog  Heavy snow  Heavy precipitations  Wind > 20 kt
SIGMETs :     Misc.  Thunderstorms  Icing  Turbulence  Mountain Waves  Volcanic Ashes







- Airport Elevation : 1325 ft
- IATA code : EBU
- Download approach charts


LFMH - St-Etienne Boutheon

CURRENT METAR :
  • 210830Z AUTO VRB02KT 4400 BR OVC007 08/07 Q1026 BECMG CAVOK

EXPIRED METARs :
  • 210800Z AUTO 01002KT 4100 BR OVC007 07/07 Q1026 TEMPO BKN003 BECMG 2000 BR
  • 210730Z AUTO VRB01KT 3000 BR OVC010 06/06 Q1026 TEMPO BKN003
  • 210700Z AUTO 00000KT 2300 BR OVC010 05/05 Q1026 TEMPO 0400 FG BKN003
  • 210630Z AUTO 00000KT 4100 1900 BR VV/// 02/02 Q1025 TEMPO BKN003 BECMG 2000 BR
  • 210600Z AUTO 00000KT 0400 0300 R17/0550D FG BKN011 03/03 Q1025 TEMPO BKN002

TAF TAF LFMH
Valid from the 21 at 09:00 until the 22 at 09:00 UTC


210800Z 2109/2209 VRB03KT 3000 BR OVC010
BECMG 2109/2111 35007KT CAVOK
ATIS : +33 4 77 36 17 51
No reported NOTAMs for that airfield.



MET'MAP, your aeronautical weather chart ! - Copyright ORBIFLY December 2007 - Disclaimer

ORBIFLY MET'MAP TEAM :

Programming & Development : Alexandra Zaïnal
Concept & Development : Baudouin d'Aumeries
Co-Development & Prog : Marc-Olivier Méhu
Technical & hardware support : Manuel Goepfert

Contact : metmap@orbifly.com




SOURCES & CREDITS :

   NOAA